sensor_id;sensor_type;location;lat;lon;timestamp;pressure;altitude;pressure_sealevel;temperature;humidity
43161;BME280;40968;52.342;5.528;2023-06-01T00:00:11;102422.81;;;13.90;59.10
43161;BME280;40968;52.342;5.528;2023-06-01T00:02:39;102161.22;;;12.38;59.16
43161;BME280;40968;52.342;5.528;2023-06-01T00:05:07;102378.28;;;13.70;59.10
43161;BME280;40968;52.342;5.528;2023-06-01T00:07:35;102500.75;;;14.37;59.24
43161;BME280;40968;52.342;5.528;2023-06-01T00:10:02;102162.22;;;12.21;59.48
43161;BME280;40968;52.342;5.528;2023-06-01T00:12:28;102474.81;;;14.07;59.62
43161;BME280;40968;52.342;5.528;2023-06-01T00:14:55;102496.84;;;14.28;59.73
43161;BME280;40968;52.342;5.528;2023-06-01T00:17:23;102420.88;;;13.78;59.56
43161;BME280;40968;52.342;5.528;2023-06-01T00:19:49;102424.34;;;13.80;59.61
43161;BME280;40968;52.342;5.528;2023-06-01T00:22:18;102375.19;;;13.48;59.88
43161;BME280;40968;52.342;5.528;2023-06-01T00:24:46;102384.31;;;13.59;59.92
43161;BME280;40968;52.342;5.528;2023-06-01T00:27:13;102194.81;;;12.31;59.66
43161;BME280;40968;52.342;5.528;2023-06-01T00:29:40;102436.88;;;13.67;60.41
43161;BME280;40968;52.342;5.528;2023-06-01T00:32:06;102488.84;;;14.12;60.29
43161;BME280;40968;52.342;5.528;2023-06-01T00:34:33;102424.94;;;13.71;60.28
43161;BME280;40968;52.342;5.528;2023-06-01T00:37:00;102495.78;;;14.02;60.55
43161;BME280;40968;52.342;5.528;2023-06-01T00:39:26;102390.59;;;13.30;60.56
43161;BME280;40968;52.342;5.528;2023-06-01T00:41:54;102488.56;;;13.88;60.78
43161;BME280;40968;52.342;5.528;2023-06-01T00:44:21;102435.91;;;13.53;60.80
43161;BME280;40968;52.342;5.528;2023-06-01T00:46:49;102484.19;;;13.56;60.76
43161;BME280;40968;52.342;5.528;2023-06-01T00:49:16;102492.88;;;13.90;60.53
43161;BME280;40968;52.342;5.528;2023-06-01T00:51:43;102427.09;;;13.35;60.83
43161;BME280;40968;52.342;5.528;2023-06-01T00:54:09;102164.50;;;11.82;60.63
43161;BME280;40968;52.342;5.528;2023-06-01T00:56:37;102498.66;;;13.84;61.08
43161;BME280;40968;52.342;5.528;2023-06-01T00:59:05;102496.91;;;13.83;60.96
43161;BME280;40968;52.342;5.528;2023-06-01T01:01:32;102501.91;;;13.75;61.36
43161;BME280;40968;52.342;5.528;2023-06-01T01:03:59;102491.81;;;13.64;61.10
43161;BME280;40968;52.342;5.528;2023-06-01T01:06:36;102486.28;;;13.51;61.06
43161;BME280;40968;52.342;5.528;2023-06-01T01:09:20;102389.06;;;12.81;61.47
43161;BME280;40968;52.342;5.528;2023-06-01T01:11:55;102487.84;;;13.55;61.36
43161;BME280;40968;52.342;5.528;2023-06-01T01:14:29;102457.56;;;13.36;61.40
43161;BME280;40968;52.342;5.528;2023-06-01T01:17:01;102502.94;;;13.58;61.60
43161;BME280;40968;52.342;5.528;2023-06-01T01:19:43;102441.00;;;13.27;61.58
43161;BME280;40968;52.342;5.528;2023-06-01T01:22:24;102495.66;;;13.60;62.14
43161;BME280;40968;52.342;5.528;2023-06-01T01:25:08;102403.84;;;13.04;61.98
43161;BME280;40968;52.342;5.528;2023-06-01T01:27:51;102391.53;;;13.00;61.66
43161;BME280;40968;52.342;5.528;2023-06-01T01:30:26;102431.56;;;13.20;61.63
43161;BME280;40968;52.342;5.528;2023-06-01T01:32:55;102354.28;;;12.77;61.85
43161;BME280;40968;52.342;5.528;2023-06-01T01:35:23;102444.47;;;13.30;61.72
43161;BME280;40968;52.342;5.528;2023-06-01T01:37:50;102502.69;;;13.63;62.14
43161;BME280;40968;52.342;5.528;2023-06-01T01:40:17;102004.63;;;10.68;62.11
43161;BME280;40968;52.342;5.528;2023-06-01T01:42:44;102502.47;;;13.51;62.25
43161;BME280;40968;52.342;5.528;2023-06-01T01:45:12;102486.84;;;13.42;62.31
43161;BME280;40968;52.342;5.528;2023-06-01T01:47:45;102496.38;;;13.48;62.45
43161;BME280;40968;52.342;5.528;2023-06-01T01:50:14;102417.91;;;13.09;61.86
43161;BME280;40968;52.342;5.528;2023-06-01T01:52:43;102436.34;;;13.15;61.68
43161;BME280;40968;52.342;5.528;2023-06-01T01:55:12;102440.28;;;13.09;61.71
43161;BME280;40968;52.342;5.528;2023-06-01T01:57:41;102508.72;;;13.36;62.08
43161;BME280;40968;52.342;5.528;2023-06-01T02:00:11;102494.50;;;13.34;62.00
43161;BME280;40968;52.342;5.528;2023-06-01T02:02:38;102410.59;;;12.81;61.91
43161;BME280;40968;52.342;5.528;2023-06-01T02:05:07;102496.97;;;13.22;62.19
43161;BME280;40968;52.342;5.528;2023-06-01T02:07:33;102428.38;;;12.83;62.11
43161;BME280;40968;52.342;5.528;2023-06-01T02:10:00;102421.88;;;12.71;62.18
43161;BME280;40968;52.342;5.528;2023-06-01T02:12:27;102482.22;;;13.14;62.34
43161;BME280;40968;52.342;5.528;2023-06-01T02:14:53;102221.50;;;11.55;62.20
43161;BME280;40968;52.342;5.528;2023-06-01T02:17:20;102381.31;;;12.44;62.54
43161;BME280;40968;52.342;5.528;2023-06-01T02:19:50;102403.19;;;12.54;62.70
43161;BME280;40968;52.342;5.528;2023-06-01T02:22:18;102482.25;;;12.98;62.70
43161;BME280;40968;52.342;5.528;2023-06-01T02:24:45;102435.34;;;12.71;62.88
43161;BME280;40968;52.342;5.528;2023-06-01T02:27:12;102475.31;;;12.93;62.59
43161;BME280;40968;52.342;5.528;2023-06-01T02:29:39;102458.75;;;12.85;62.80
43161;BME280;40968;52.342;5.528;2023-06-01T02:32:06;102355.69;;;12.22;63.05
43161;BME280;40968;52.342;5.528;2023-06-01T02:34:33;102473.91;;;12.86;62.81
43161;BME280;40968;52.342;5.528;2023-06-01T02:37:01;102423.91;;;12.36;63.53
43161;BME280;40968;52.342;5.528;2023-06-01T02:39:29;102313.00;;;11.84;63.28
43161;BME280;40968;52.342;5.528;2023-06-01T02:41:56;102477.41;;;12.88;63.74
43161;BME280;40968;52.342;5.528;2023-06-01T02:44:23;102212.22;;;11.29;63.47
43161;BME280;40968;52.342;5.528;2023-06-01T02:46:49;102400.94;;;12.46;63.51
43161;BME280;40968;52.342;5.528;2023-06-01T02:49:16;102480.69;;;12.93;63.86
43161;BME280;40968;52.342;5.528;2023-06-01T02:51:42;102322.16;;;11.98;63.29
43161;BME280;40968;52.342;5.528;2023-06-01T02:54:09;102470.28;;;12.87;63.29
43161;BME280;40968;52.342;5.528;2023-06-01T02:56:37;102472.97;;;12.87;63.33
43161;BME280;40968;52.342;5.528;2023-06-01T02:59:04;102466.63;;;12.88;63.52
43161;BME280;40968;52.342;5.528;2023-06-01T03:01:31;102476.56;;;12.88;63.60
43161;BME280;40968;52.342;5.528;2023-06-01T03:04:00;102470.63;;;12.81;63.91
43161;BME280;40968;52.342;5.528;2023-06-01T03:06:29;102478.28;;;12.73;63.53
43161;BME280;40968;52.342;5.528;2023-06-01T03:08:57;102348.28;;;11.94;63.72
43161;BME280;40968;52.342;5.528;2023-06-01T03:11:23;102433.53;;;12.40;63.93
43161;BME280;40968;52.342;5.528;2023-06-01T03:13:51;102335.69;;;11.78;64.01
43161;BME280;40968;52.342;5.528;2023-06-01T03:16:18;102470.94;;;12.60;64.33
43161;BME280;40968;52.342;5.528;2023-06-01T03:18:45;102466.16;;;12.66;64.21
43161;BME280;40968;52.342;5.528;2023-06-01T03:21:11;102467.00;;;12.66;64.17
43161;BME280;40968;52.342;5.528;2023-06-01T03:23:38;102337.25;;;11.83;64.04
43161;BME280;40968;52.342;5.528;2023-06-01T03:26:09;102392.25;;;12.09;63.96
43161;BME280;40968;52.342;5.528;2023-06-01T03:28:37;102467.63;;;12.55;63.80
43161;BME280;40968;52.342;5.528;2023-06-01T03:31:05;102289.09;;;11.48;63.70
43161;BME280;40968;52.342;5.528;2023-06-01T03:33:32;102385.16;;;12.08;63.87
43161;BME280;40968;52.342;5.528;2023-06-01T03:35:59;102392.63;;;12.03;63.88
43161;BME280;40968;52.342;5.528;2023-06-01T03:38:25;102460.44;;;12.40;63.91
43161;BME280;40968;52.342;5.528;2023-06-01T03:40:52;102459.81;;;12.35;64.26
43161;BME280;40968;52.342;5.528;2023-06-01T03:43:19;102381.56;;;11.91;64.32
43161;BME280;40968;52.342;5.528;2023-06-01T03:45:46;102461.38;;;12.39;64.23
43161;BME280;40968;52.342;5.528;2023-06-01T03:48:14;102457.66;;;12.41;63.97
43161;BME280;40968;52.342;5.528;2023-06-01T03:50:41;102406.47;;;12.11;64.29
43161;BME280;40968;52.342;5.528;2023-06-01T03:53:07;102459.47;;;12.41;64.35
43161;BME280;40968;52.342;5.528;2023-06-01T03:55:34;102173.28;;;10.72;64.55
43161;BME280;40968;52.342;5.528;2023-06-01T03:58:01;102378.88;;;11.91;64.86
43161;BME280;40968;52.342;5.528;2023-06-01T04:00:28;102395.91;;;12.08;65.05
43161;BME280;40968;52.342;5.528;2023-06-01T04:02:56;102395.56;;;12.14;64.98
43161;BME280;40968;52.342;5.528;2023-06-01T04:05:25;102373.81;;;12.03;64.92
43161;BME280;40968;52.342;5.528;2023-06-01T04:07:53;102428.34;;;12.37;64.63
43161;BME280;40968;52.342;5.528;2023-06-01T04:10:20;102405.88;;;12.22;64.67
43161;BME280;40968;52.342;5.528;2023-06-01T04:12:48;102125.00;;;10.56;64.63
43161;BME280;40968;52.342;5.528;2023-06-01T04:15:16;102456.97;;;12.54;64.71
43161;BME280;40968;52.342;5.528;2023-06-01T04:17:43;102409.25;;;12.25;64.84
43161;BME280;40968;52.342;5.528;2023-06-01T04:20:11;102275.38;;;11.52;64.78
43161;BME280;40968;52.342;5.528;2023-06-01T04:22:40;102449.66;;;12.56;64.59
43161;BME280;40968;52.342;5.528;2023-06-01T04:25:08;102452.34;;;12.56;64.38
43161;BME280;40968;52.342;5.528;2023-06-01T04:27:37;102345.06;;;11.87;64.32
43161;BME280;40968;52.342;5.528;2023-06-01T04:30:05;102445.50;;;12.50;64.34
43161;BME280;40968;52.342;5.528;2023-06-01T04:32:33;102451.84;;;12.49;64.43
43161;BME280;40968;52.342;5.528;2023-06-01T04:35:01;102100.56;;;10.27;64.31
43161;BME280;40968;52.342;5.528;2023-06-01T04:37:31;102415.16;;;12.16;64.18
43161;BME280;40968;52.342;5.528;2023-06-01T04:40:00;102376.97;;;11.93;64.67
43161;BME280;40968;52.342;5.528;2023-06-01T04:42:31;102370.88;;;11.74;64.16
43161;BME280;40968;52.342;5.528;2023-06-01T04:44:59;102374.63;;;11.87;64.44
43161;BME280;40968;52.342;5.528;2023-06-01T04:47:26;102457.81;;;12.54;64.25
43161;BME280;40968;52.342;5.528;2023-06-01T04:49:53;102317.69;;;11.65;64.00
43161;BME280;40968;52.342;5.528;2023-06-01T04:52:21;102466.69;;;12.56;63.68
43161;BME280;40968;52.342;5.528;2023-06-01T04:54:48;102359.28;;;11.89;63.77
43161;BME280;40968;52.342;5.528;2023-06-01T04:57:16;102408.56;;;12.22;63.77
43161;BME280;40968;52.342;5.528;2023-06-01T04:59:44;102467.53;;;12.57;64.28
43161;BME280;40968;52.342;5.528;2023-06-01T05:02:10;102340.56;;;11.88;63.93
43161;BME280;40968;52.342;5.528;2023-06-01T05:04:37;102460.19;;;12.60;63.87
43161;BME280;40968;52.342;5.528;2023-06-01T05:07:04;102462.88;;;12.60;63.66
43161;BME280;40968;52.342;5.528;2023-06-01T05:09:31;102461.97;;;12.60;63.36
43161;BME280;40968;52.342;5.528;2023-06-01T05:11:58;102185.47;;;10.95;63.34
43161;BME280;40968;52.342;5.528;2023-06-01T05:14:26;102465.66;;;12.59;63.44
43161;BME280;40968;52.342;5.528;2023-06-01T05:16:52;102408.31;;;12.26;63.66
43161;BME280;40968;52.342;5.528;2023-06-01T05:19:19;102371.88;;;12.05;63.73
43161;BME280;40968;52.342;5.528;2023-06-01T05:21:46;102286.97;;;11.53;63.71
43161;BME280;40968;52.342;5.528;2023-06-01T05:24:13;102469.97;;;12.62;63.95
43161;BME280;40968;52.342;5.528;2023-06-01T05:26:40;102356.03;;;12.00;63.71
43161;BME280;40968;52.342;5.528;2023-06-01T05:29:06;102464.31;;;12.66;63.98
43161;BME280;40968;52.342;5.528;2023-06-01T05:31:34;102077.75;;;10.38;63.91
43161;BME280;40968;52.342;5.528;2023-06-01T05:34:01;102471.34;;;12.69;63.76
43161;BME280;40968;52.342;5.528;2023-06-01T05:36:28;102469.44;;;12.71;63.96
43161;BME280;40968;52.342;5.528;2023-06-01T05:38:57;102494.63;;;12.70;63.82
43161;BME280;40968;52.342;5.528;2023-06-01T05:41:23;102470.41;;;12.70;63.57
43161;BME280;40968;52.342;5.528;2023-06-01T05:43:51;102473.25;;;12.67;63.39
43161;BME280;40968;52.342;5.528;2023-06-01T05:46:18;102478.28;;;12.73;63.38
43161;BME280;40968;52.342;5.528;2023-06-01T05:48:46;102473.84;;;12.72;63.36
43161;BME280;40968;52.342;5.528;2023-06-01T05:51:13;102321.84;;;11.86;63.09
43161;BME280;40968;52.342;5.528;2023-06-01T05:53:40;102474.66;;;12.74;62.91
43161;BME280;40968;52.342;5.528;2023-06-01T05:56:07;102033.56;;;10.11;63.48
43161;BME280;40968;52.342;5.528;2023-06-01T05:58:34;102357.94;;;12.14;63.40
43161;BME280;40968;52.342;5.528;2023-06-01T06:01:00;102479.16;;;12.89;63.24
43161;BME280;40968;52.342;5.528;2023-06-01T06:03:27;102420.50;;;12.64;62.91
43161;BME280;40968;52.342;5.528;2023-06-01T06:05:55;102474.19;;;12.98;63.12
43161;BME280;40968;52.342;5.528;2023-06-01T06:08:22;102356.53;;;12.39;62.75
43161;BME280;40968;52.342;5.528;2023-06-01T06:10:48;102428.19;;;12.86;62.62
43161;BME280;40968;52.342;5.528;2023-06-01T06:13:15;102394.91;;;12.73;62.35
43161;BME280;40968;52.342;5.528;2023-06-01T06:15:42;102350.19;;;12.40;62.01
43161;BME280;40968;52.342;5.528;2023-06-01T06:18:08;102395.34;;;12.65;61.72
43161;BME280;40968;52.342;5.528;2023-06-01T06:20:35;102426.72;;;12.81;61.81
43161;BME280;40968;52.342;5.528;2023-06-01T06:23:03;102403.84;;;12.73;61.85
43161;BME280;40968;52.342;5.528;2023-06-01T06:25:30;102470.22;;;13.19;61.33
43161;BME280;40968;52.342;5.528;2023-06-01T06:27:56;102398.09;;;12.80;61.63
43161;BME280;40968;52.342;5.528;2023-06-01T06:30:23;102476.88;;;13.28;61.32
43161;BME280;40968;52.342;5.528;2023-06-01T06:32:50;102322.81;;;12.33;61.08
43161;BME280;40968;52.342;5.528;2023-06-01T06:35:17;102396.31;;;12.94;60.91
43161;BME280;40968;52.342;5.528;2023-06-01T06:37:43;102222.00;;;11.94;60.82
43161;BME280;40968;52.342;5.528;2023-06-01T06:40:12;102470.50;;;13.45;60.80
43161;BME280;40968;52.342;5.528;2023-06-01T06:42:40;102429.44;;;13.25;60.55
43161;BME280;40968;52.342;5.528;2023-06-01T06:45:07;102487.66;;;13.58;60.65
43161;BME280;40968;52.342;5.528;2023-06-01T06:47:34;102379.44;;;13.07;60.53
43161;BME280;40968;52.342;5.528;2023-06-01T06:50:00;102487.09;;;13.68;60.62
43161;BME280;40968;52.342;5.528;2023-06-01T06:52:27;102370.75;;;13.02;59.89
43161;BME280;40968;52.342;5.528;2023-06-01T06:54:54;102276.84;;;12.52;59.96
43161;BME280;40968;52.342;5.528;2023-06-01T06:57:22;102469.00;;;13.70;59.69
43161;BME280;40968;52.342;5.528;2023-06-01T06:59:48;102393.13;;;13.18;59.57
43161;BME280;40968;52.342;5.528;2023-06-01T07:02:15;102349.63;;;12.96;60.02
43161;BME280;40968;52.342;5.528;2023-06-01T07:04:41;102461.38;;;13.62;59.87
43161;BME280;40968;52.342;5.528;2023-06-01T07:07:08;102416.38;;;13.19;60.17
43161;BME280;40968;52.342;5.528;2023-06-01T07:09:35;102443.72;;;13.27;60.35
43161;BME280;40968;52.342;5.528;2023-06-01T07:12:01;102408.69;;;13.27;60.31
43161;BME280;40968;52.342;5.528;2023-06-01T07:14:29;102480.94;;;13.80;60.22
43161;BME280;40968;52.342;5.528;2023-06-01T07:16:56;102423.41;;;13.52;59.57
43161;BME280;40968;52.342;5.528;2023-06-01T07:19:23;102426.47;;;13.60;59.83
43161;BME280;40968;52.342;5.528;2023-06-01T07:21:50;102320.78;;;12.98;59.40
43161;BME280;40968;52.342;5.528;2023-06-01T07:24:17;102208.84;;;12.36;58.87
43161;BME280;40968;52.342;5.528;2023-06-01T07:26:44;102402.22;;;13.60;58.62
43161;BME280;40968;52.342;5.528;2023-06-01T07:29:11;102439.25;;;13.71;58.83
43161;BME280;40968;52.342;5.528;2023-06-01T07:31:40;102463.81;;;13.96;58.92
43161;BME280;40968;52.342;5.528;2023-06-01T07:34:07;102458.13;;;14.00;59.02
43161;BME280;40968;52.342;5.528;2023-06-01T07:36:34;102484.69;;;14.21;58.89
43161;BME280;40968;52.342;5.528;2023-06-01T07:39:02;102487.13;;;14.25;58.55
43161;BME280;40968;52.342;5.528;2023-06-01T07:41:31;102481.91;;;14.22;58.31
43161;BME280;40968;52.342;5.528;2023-06-01T07:43:58;102272.94;;;13.03;58.19
43161;BME280;40968;52.342;5.528;2023-06-01T07:46:24;102477.88;;;14.15;58.07
43161;BME280;40968;52.342;5.528;2023-06-01T07:48:52;102490.09;;;14.21;58.44
43161;BME280;40968;52.342;5.528;2023-06-01T07:51:19;102479.97;;;14.24;58.38
43161;BME280;40968;52.342;5.528;2023-06-01T07:53:46;102416.84;;;14.00;58.02
43161;BME280;40968;52.342;5.528;2023-06-01T07:56:13;102479.56;;;14.45;57.63
43161;BME280;40968;52.342;5.528;2023-06-01T07:58:40;102475.31;;;14.41;57.70
43161;BME280;40968;52.342;5.528;2023-06-01T08:01:07;102072.28;;;11.98;58.04
43161;BME280;40968;52.342;5.528;2023-06-01T08:03:34;102364.50;;;13.75;58.39
43161;BME280;40968;52.342;5.528;2023-06-01T08:06:02;102325.03;;;13.74;58.34
43161;BME280;40968;52.342;5.528;2023-06-01T08:08:30;102383.28;;;14.18;57.34
43161;BME280;40968;52.342;5.528;2023-06-01T08:10:57;102478.13;;;14.81;57.21
43161;BME280;40968;52.342;5.528;2023-06-01T08:13:23;102402.66;;;14.52;56.67
43161;BME280;40968;52.342;5.528;2023-06-01T08:15:51;102266.44;;;13.77;56.82
43161;BME280;40968;52.342;5.528;2023-06-01T08:18:18;102436.75;;;14.68;56.29
43161;BME280;40968;52.342;5.528;2023-06-01T08:20:45;101867.31;;;11.52;55.76
43161;BME280;40968;52.342;5.528;2023-06-01T08:23:13;102105.13;;;13.04;55.97
43161;BME280;40968;52.342;5.528;2023-06-01T08:25:42;102466.41;;;15.22;55.66
43161;BME280;40968;52.342;5.528;2023-06-01T08:28:09;102152.44;;;13.35;55.79
43161;BME280;40968;52.342;5.528;2023-06-01T08:30:35;102472.25;;;15.29;55.60
43161;BME280;40968;52.342;5.528;2023-06-01T08:33:02;102465.75;;;15.32;55.46
43161;BME280;40968;52.342;5.528;2023-06-01T08:35:29;102462.72;;;15.36;55.91
43161;BME280;40968;52.342;5.528;2023-06-01T08:37:58;102442.63;;;15.28;55.46
43161;BME280;40968;52.342;5.528;2023-06-01T08:40:26;102392.03;;;15.04;55.04
43161;BME280;40968;52.342;5.528;2023-06-01T08:42:57;102410.88;;;15.18;55.22
43161;BME280;40968;52.342;5.528;2023-06-01T08:45:25;102353.25;;;14.79;55.45
43161;BME280;40968;52.342;5.528;2023-06-01T08:47:53;102449.47;;;15.59;55.06
43161;BME280;40968;52.342;5.528;2023-06-01T08:50:20;102180.41;;;14.02;54.86
43161;BME280;40968;52.342;5.528;2023-06-01T08:52:47;102450.44;;;15.71;54.66
43161;BME280;40968;52.342;5.528;2023-06-01T08:55:15;102451.19;;;15.60;54.71
43161;BME280;40968;52.342;5.528;2023-06-01T08:57:43;102398.44;;;15.29;55.13
43161;BME280;40968;52.342;5.528;2023-06-01T09:00:11;102377.16;;;15.37;55.04
43161;BME280;40968;52.342;5.528;2023-06-01T09:02:38;102353.16;;;15.32;54.87
43161;BME280;40968;52.342;5.528;2023-06-01T09:05:06;102385.78;;;15.55;54.07
43161;BME280;40968;52.342;5.528;2023-06-01T09:07:32;102457.16;;;15.91;53.90
43161;BME280;40968;52.342;5.528;2023-06-01T09:09:59;102450.91;;;15.90;53.77
43161;BME280;40968;52.342;5.528;2023-06-01T09:12:28;102384.72;;;15.57;53.55
43161;BME280;40968;52.342;5.528;2023-06-01T09:15:13;102372.81;;;15.60;53.14
43161;BME280;40968;52.342;5.528;2023-06-01T09:17:42;102360.31;;;15.59;53.34
43161;BME280;40968;52.342;5.528;2023-06-01T09:20:11;102174.44;;;14.63;53.06
43161;BME280;40968;52.342;5.528;2023-06-01T09:22:39;102387.50;;;15.95;53.29
43161;BME280;40968;52.342;5.528;2023-06-01T09:25:06;102378.88;;;15.89;53.37
43161;BME280;40968;52.342;5.528;2023-06-01T09:27:42;102449.19;;;16.64;52.86
43161;BME280;40968;52.342;5.528;2023-06-01T09:30:12;102171.09;;;14.98;52.23
43161;BME280;40968;52.342;5.528;2023-06-01T09:32:39;102442.16;;;16.85;51.75
43161;BME280;40968;52.342;5.528;2023-06-01T09:35:07;102347.69;;;16.34;51.54
43161;BME280;40968;52.342;5.528;2023-06-01T09:37:34;102349.44;;;16.46;51.51
43161;BME280;40968;52.342;5.528;2023-06-01T09:40:01;102439.16;;;17.01;50.52
43161;BME280;40968;52.342;5.528;2023-06-01T09:42:32;102425.34;;;16.93;51.05
43161;BME280;40968;52.342;5.528;2023-06-01T09:45:16;102432.63;;;16.93;51.26
43161;BME280;40968;52.342;5.528;2023-06-01T09:47:43;102435.63;;;17.12;51.39
43161;BME280;40968;52.342;5.528;2023-06-01T09:50:10;102334.06;;;16.71;50.41
43161;BME280;40968;52.342;5.528;2023-06-01T09:52:37;102426.31;;;17.28;49.82
43161;BME280;40968;52.342;5.528;2023-06-01T09:55:08;102356.03;;;16.66;50.33
43161;BME280;40968;52.342;5.528;2023-06-01T09:57:35;102418.66;;;17.10;50.63
43161;BME280;40968;52.342;5.528;2023-06-01T10:00:03;102318.06;;;16.68;50.48
43161;BME280;40968;52.342;5.528;2023-06-01T10:02:32;102356.19;;;17.00;49.97
43161;BME280;40968;52.342;5.528;2023-06-01T10:05:00;102421.44;;;17.44;50.23
43161;BME280;40968;52.342;5.528;2023-06-01T10:07:29;102379.16;;;17.19;50.19
43161;BME280;40968;52.342;5.528;2023-06-01T10:09:57;102173.09;;;16.05;49.67
43161;BME280;40968;52.342;5.528;2023-06-01T10:12:25;102298.47;;;17.00;49.39
43161;BME280;40968;52.342;5.528;2023-06-01T10:14:53;102414.66;;;17.50;48.63
43161;BME280;40968;52.342;5.528;2023-06-01T10:17:20;102351.88;;;16.98;49.72
43161;BME280;40968;52.342;5.528;2023-06-01T10:19:48;102306.16;;;16.46;49.99
43161;BME280;40968;52.342;5.528;2023-06-01T10:22:16;102090.78;;;15.25;50.10
43161;BME280;40968;52.342;5.528;2023-06-01T10:24:43;102415.47;;;17.28;50.22
43161;BME280;40968;52.342;5.528;2023-06-01T10:27:16;102219.97;;;16.17;49.75
43161;BME280;40968;52.342;5.528;2023-06-01T10:29:46;102387.59;;;17.03;49.43
43161;BME280;40968;52.342;5.528;2023-06-01T10:32:41;102417.66;;;17.11;49.94
43161;BME280;40968;52.342;5.528;2023-06-01T10:38:27;102421.94;;;17.02;50.64
43161;BME280;40968;52.342;5.528;2023-06-01T10:41:30;102415.75;;;17.00;50.88
43161;BME280;40968;52.342;5.528;2023-06-01T10:43:57;102414.06;;;17.11;51.15
43161;BME280;40968;52.342;5.528;2023-06-01T10:46:38;102377.50;;;17.05;50.68
43161;BME280;40968;52.342;5.528;2023-06-01T10:49:06;102248.91;;;16.28;50.84
43161;BME280;40968;52.342;5.528;2023-06-01T10:51:32;102413.44;;;17.43;50.38
43161;BME280;40968;52.342;5.528;2023-06-01T10:54:28;102419.22;;;17.61;49.82
43161;BME280;40968;52.342;5.528;2023-06-01T10:57:18;102423.53;;;17.74;49.26
43161;BME280;40968;52.342;5.528;2023-06-01T11:00:10;102429.13;;;17.84;49.06
43161;BME280;40968;52.342;5.528;2023-06-01T11:02:47;102351.94;;;17.43;48.89
43161;BME280;40968;52.342;5.528;2023-06-01T11:05:33;102417.13;;;17.64;49.20
43161;BME280;40968;52.342;5.528;2023-06-01T11:08:00;102420.16;;;17.37;49.85
43161;BME280;40968;52.342;5.528;2023-06-01T11:10:55;102410.84;;;17.41;50.79
43161;BME280;40968;52.342;5.528;2023-06-01T11:13:26;102432.13;;;17.34;51.18
43161;BME280;40968;52.342;5.528;2023-06-01T11:16:29;102411.41;;;17.22;52.01
43161;BME280;40968;52.342;5.528;2023-06-01T11:18:56;102404.13;;;17.11;53.06
43161;BME280;40968;52.342;5.528;2023-06-01T11:21:29;102044.81;;;14.77;53.36
43161;BME280;40968;52.342;5.528;2023-06-01T11:23:57;102410.81;;;16.70;54.72
43161;BME280;40968;52.342;5.528;2023-06-01T11:26:29;102107.84;;;14.63;55.57
43161;BME280;40968;52.342;5.528;2023-06-01T11:29:05;102127.72;;;14.75;56.06
43161;BME280;40968;52.342;5.528;2023-06-01T11:31:37;102349.16;;;16.14;55.95
43161;BME280;40968;52.342;5.528;2023-06-01T11:34:04;102406.00;;;16.38;55.75
43161;BME280;40968;52.342;5.528;2023-06-01T11:36:39;102427.41;;;16.41;55.55
43161;BME280;40968;52.342;5.528;2023-06-01T11:39:16;102419.00;;;16.33;55.94
43161;BME280;40968;52.342;5.528;2023-06-01T11:41:44;102422.00;;;16.41;55.63
43161;BME280;40968;52.342;5.528;2023-06-01T11:44:12;102416.56;;;16.41;55.62
43161;BME280;40968;52.342;5.528;2023-06-01T11:46:49;102417.63;;;16.51;54.99
43161;BME280;40968;52.342;5.528;2023-06-01T11:49:16;102344.09;;;16.09;55.13
43161;BME280;40968;52.342;5.528;2023-06-01T11:51:43;102076.13;;;14.54;54.90
43161;BME280;40968;52.342;5.528;2023-06-01T11:54:10;102190.47;;;15.29;54.69
43161;BME280;40968;52.342;5.528;2023-06-01T11:56:37;102441.44;;;16.46;55.07
43161;BME280;40968;52.342;5.528;2023-06-01T11:59:05;102407.13;;;16.22;55.50
43161;BME280;40968;52.342;5.528;2023-06-01T12:01:35;102413.44;;;16.10;55.85
43161;BME280;40968;52.342;5.528;2023-06-01T12:04:04;102101.41;;;14.27;55.72
43161;BME280;40968;52.342;5.528;2023-06-01T12:06:33;102256.72;;;15.21;55.42
43161;BME280;40968;52.342;5.528;2023-06-01T12:09:01;102392.44;;;16.01;55.54
43161;BME280;40968;52.342;5.528;2023-06-01T12:11:28;102385.53;;;15.97;55.52
43161;BME280;40968;52.342;5.528;2023-06-01T12:13:55;102406.50;;;16.06;55.42
43161;BME280;40968;52.342;5.528;2023-06-01T12:16:22;102393.22;;;16.03;55.68
43161;BME280;40968;52.342;5.528;2023-06-01T12:18:50;102342.97;;;15.74;55.89
43161;BME280;40968;52.342;5.528;2023-06-01T12:21:17;102401.34;;;16.03;56.17
43161;BME280;40968;52.342;5.528;2023-06-01T12:23:48;102400.88;;;16.09;56.17
43161;BME280;40968;52.342;5.528;2023-06-01T12:26:16;102302.38;;;15.50;56.30
43161;BME280;40968;52.342;5.528;2023-06-01T12:28:50;102390.81;;;16.11;56.35
43161;BME280;40968;52.342;5.528;2023-06-01T12:31:18;102342.34;;;15.84;55.68
43161;BME280;40968;52.342;5.528;2023-06-01T12:33:45;102051.59;;;14.07;55.57
43161;BME280;40968;52.342;5.528;2023-06-01T12:36:30;102387.91;;;16.14;55.82
43161;BME280;40968;52.342;5.528;2023-06-01T12:38:58;102355.88;;;16.08;55.53
43161;BME280;40968;52.342;5.528;2023-06-01T12:41:26;102295.63;;;15.69;54.96
43161;BME280;40968;52.342;5.528;2023-06-01T12:43:53;102349.88;;;15.91;55.60
43161;BME280;40968;52.342;5.528;2023-06-01T12:46:20;102399.78;;;16.24;55.65
43161;BME280;40968;52.342;5.528;2023-06-01T12:48:48;102320.47;;;15.74;55.52
43161;BME280;40968;52.342;5.528;2023-06-01T12:51:15;102400.88;;;16.09;55.96
43161;BME280;40968;52.342;5.528;2023-06-01T12:53:43;102204.16;;;14.88;56.35
43161;BME280;40968;52.342;5.528;2023-06-01T12:56:10;102406.50;;;16.06;56.57
43161;BME280;40968;52.342;5.528;2023-06-01T12:58:38;102309.28;;;15.54;56.66
43161;BME280;40968;52.342;5.528;2023-06-01T13:01:05;102096.44;;;14.34;56.51